Salem Township, Maine
Current Conditions -  °F | °C
As of 4:15 PM on Saturday 22 Nov 2014 (Local Time) from KWVL Reporting Station
Clear Clear  
Wind Chill: -4°   Ceiling: Unl
Heat Index: -1°   Visibility: 10mi
Dew Point: -11°   Wind: 6mph
Humidity: 47%   Direction: 190°S
Pressure: 29.96"   Gusts: NA
Location:  44.8564°N, 70.2117°W
Report Text: KWVL 222115Z 19005KT 10SM CLR M01/M11 A2996 RMK AO1
Loading
Personal Weather Stations






























Interactive Weather Map New forecast layout! Learn more

10-Day Weather Forecast

Advertisements
Track Severe Weather on mobile